Norwegian Sun — C6RN3 — position and weather

sailwx.info

Track history (hours):
 
Tides and Currents Weather Stations Pressure Air Temp Water Temp Dewpoint Dewpoint Depression Visibility Wind Speed Wind Dir Waves Ship Positions

Norwegian Sun

Operator: Norwegian Cruise Line

Last reported at 2019-Dec-12 04:31 UTC. Time now 2019-Dec-12 08:08 UTC.
Position N 27°01' W 079°48'.

Type: Passenger vessel. MMSI: 311109000.

Date/timePositionNaut miles runAvg speedWind from/ knotsBaromVisibWave heightAir tempDewpointWater temp
2019-Dec-12 04:31N 27°01' W 079°48'4718.8
2019-Dec-12 02:00N 26°13' W 079°47'918.8
2019-Dec-12 01:30N 26°04' W 079°49'1919.3
2019-Dec-12 00:30N 25°45' W 079°51'1019.7
2019-Dec-12 00:00N 25°35' W 079°53'48019.2
2019-Dec-10 23:00N 20°44' W 086°49'1615.7
2019-Dec-10 22:00N 20°31' W 086°57'0 0.0
2019-Dec-10 20:30N 20°31' W 086°57'0 0.0
2019-Dec-10 18:30N 20°31' W 086°57'0 0.0
2019-Dec-10 16:30N 20°31' W 086°57'0 0.0
2019-Dec-10 14:27N 20°31' W 086°57'0 0.0
2019-Dec-10 13:00N 20°31' W 086°57'0 0.0
2019-Dec-10 12:30N 20°31' W 086°57'6 5.9
2019-Dec-10 11:30N 20°27' W 087°02'9 8.9
2019-Dec-10 10:29N 20°19' W 087°05'482 9.7
2019-Dec-08 08:47N 25°05' W 080°05'10119.2
2019-Dec-08 03:30N 26°45' W 079°53'918.6
2019-Dec-08 03:01N 26°54' W 079°52'918.3
2019-Dec-08 02:30N 27°04' W 079°51'9018.1
2019-Dec-07 21:30N 28°25' W 080°36'8 0.7
2019-Dec-07 10:31N 28°20' W 080°29'8714.5
2019-Dec-07 04:30N 27°01' W 079°48'3120.2
2019-Dec-07 03:00N 26°31' W 079°45'3919.8
2019-Dec-07 01:00N 25°52' W 079°50'1919.1
2019-Dec-07 00:00N 25°33' W 079°53'1019.6
2019-Dec-06 23:30N 25°23' W 079°56'48619.4
2019-Dec-05 22:30N 20°31' W 086°57'0 0.1
2019-Dec-05 19:29N 20°31' W 086°57'0 0.0
2019-Dec-05 18:29N 20°31' W 086°57'0 0.0
2019-Dec-05 17:23N 20°31' W 086°57'0 0.0
2019-Dec-05 16:29N 20°31' W 086°57'0 0.0
2019-Dec-05 15:29N 20°31' W 086°57'0 0.0
2019-Dec-05 13:30N 20°31' W 086°57'0 0.0
2019-Dec-05 13:00N 20°31' W 086°57'  
2019-Dec-03 08:44N 25°07' W 080°03'419.1
2019-Dec-03 08:31N 25°11' W 080°01'1818.3
2019-Dec-03 07:30N 25°29' W 079°56'1919.4
2019-Dec-03 06:30N 25°48' W 079°57'2019.7
2019-Dec-03 05:30N 26°08' W 079°57'1919.5
2019-Dec-03 04:30N 26°27' W 079°55'1019.3
2019-Dec-03 04:00N 26°37' W 079°54'1019.3
2019-Dec-03 03:30N 26°46' W 079°53'8718.8
2019-Dec-02 22:51N 28°10' W 080°22'818.0
2019-Dec-02 22:23N 28°17' W 080°27'1112.5
2019-Dec-02 21:30N 28°25' W 080°36'1 0.6
2019-Dec-02 19:28N 28°25' W 080°38'0 0.0
2019-Dec-02 18:58N 28°25' W 080°38'0 0.0
2019-Dec-02 18:28N 28°25' W 080°38'0 0.0
2019-Dec-02 17:28N 28°25' W 080°38'0 0.0
2019-Dec-02 16:58N 28°25' W 080°38'0 0.0
2019-Dec-02 15:58N 28°25' W 080°38'0 0.0
2019-Dec-02 12:58N 28°25' W 080°38'0 0.0
2019-Dec-02 11:30N 28°25' W 080°38'  
Track history (hours):
 
Tides and Currents Weather Stations Pressure Air Temp Water Temp Dewpoint Dewpoint Depression Visibility Wind Speed Wind Dir Waves Ship Positions

Norwegian Sun

Operator: Norwegian Cruise Line

Last reported at 2019-Dec-12 04:31 UTC. Time now 2019-Dec-12 08:08 UTC.
Position N 27°01' W 079°48'.

Type: Passenger vessel. MMSI: 311109000.

Date/timePositionNaut miles runAvg speedWind from/ knotsBaromVisibWave heightAir tempDewpointWater temp
2019-Dec-12 04:31N 27°01' W 079°48'4718.8
2019-Dec-12 02:00N 26°13' W 079°47'918.8
2019-Dec-12 01:30N 26°04' W 079°49'1919.3
2019-Dec-12 00:30N 25°45' W 079°51'1019.7
2019-Dec-12 00:00N 25°35' W 079°53'48019.2
2019-Dec-10 23:00N 20°44' W 086°49'1615.7
2019-Dec-10 22:00N 20°31' W 086°57'0 0.0
2019-Dec-10 20:30N 20°31' W 086°57'0 0.0
2019-Dec-10 18:30N 20°31' W 086°57'0 0.0
2019-Dec-10 16:30N 20°31' W 086°57'0 0.0
2019-Dec-10 14:27N 20°31' W 086°57'0 0.0
2019-Dec-10 13:00N 20°31' W 086°57'0 0.0
2019-Dec-10 12:30N 20°31' W 086°57'6 5.9
2019-Dec-10 11:30N 20°27' W 087°02'9 8.9
2019-Dec-10 10:29N 20°19' W 087°05'482 9.7
2019-Dec-08 08:47N 25°05' W 080°05'10119.2
2019-Dec-08 03:30N 26°45' W 079°53'918.6
2019-Dec-08 03:01N 26°54' W 079°52'918.3
2019-Dec-08 02:30N 27°04' W 079°51'9018.1
2019-Dec-07 21:30N 28°25' W 080°36'8 0.7
2019-Dec-07 10:31N 28°20' W 080°29'8714.5
2019-Dec-07 04:30N 27°01' W 079°48'3120.2
2019-Dec-07 03:00N 26°31' W 079°45'3919.8
2019-Dec-07 01:00N 25°52' W 079°50'1919.1
2019-Dec-07 00:00N 25°33' W 079°53'1019.6
2019-Dec-06 23:30N 25°23' W 079°56'48619.4
2019-Dec-05 22:30N 20°31' W 086°57'0 0.1
2019-Dec-05 19:29N 20°31' W 086°57'0 0.0
2019-Dec-05 18:29N 20°31' W 086°57'0 0.0
2019-Dec-05 17:23N 20°31' W 086°57'0 0.0
2019-Dec-05 16:29N 20°31' W 086°57'0 0.0
2019-Dec-05 15:29N 20°31' W 086°57'0 0.0
2019-Dec-05 13:30N 20°31' W 086°57'0 0.0
2019-Dec-05 13:00N 20°31' W 086°57'  
2019-Dec-03 08:44N 25°07' W 080°03'419.1
2019-Dec-03 08:31N 25°11' W 080°01'1818.3
2019-Dec-03 07:30N 25°29' W 079°56'1919.4
2019-Dec-03 06:30N 25°48' W 079°57'2019.7
2019-Dec-03 05:30N 26°08' W 079°57'1919.5
2019-Dec-03 04:30N 26°27' W 079°55'1019.3
2019-Dec-03 04:00N 26°37' W 079°54'1019.3
2019-Dec-03 03:30N 26°46' W 079°53'8718.8
2019-Dec-02 22:51N 28°10' W 080°22'818.0
2019-Dec-02 22:23N 28°17' W 080°27'1112.5
2019-Dec-02 21:30N 28°25' W 080°36'1 0.6
2019-Dec-02 19:28N 28°25' W 080°38'0 0.0
2019-Dec-02 18:58N 28°25' W 080°38'0 0.0
2019-Dec-02 18:28N 28°25' W 080°38'0 0.0
2019-Dec-02 17:28N 28°25' W 080°38'0 0.0
2019-Dec-02 16:58N 28°25' W 080°38'0 0.0
2019-Dec-02 15:58N 28°25' W 080°38'0 0.0
2019-Dec-02 12:58N 28°25' W 080°38'0 0.0
2019-Dec-02 11:30N 28°25' W 080°38'  

Dump ship's entire track history